createdAt,value
2022-07-29T00:00:26.064Z,0.00
2022-07-29T00:01:26.019Z,0.00
2022-07-29T00:02:26.096Z,0.00
2022-07-29T00:03:26.078Z,0.00
2022-07-29T00:04:26.109Z,0.00
2022-07-29T00:05:26.009Z,0.00
2022-07-29T00:06:25.994Z,0.00
2022-07-29T00:07:25.961Z,0.00
2022-07-29T00:08:25.954Z,0.00
2022-07-29T00:09:25.979Z,0.00
2022-07-29T00:10:25.954Z,0.00
2022-07-29T00:11:25.944Z,0.00
2022-07-29T00:12:26.786Z,0.00
2022-07-29T00:13:32.315Z,0.00
2022-07-29T00:14:25.921Z,0.00
2022-07-29T00:15:25.877Z,0.00
2022-07-29T00:16:25.921Z,0.00
2022-07-29T00:17:25.878Z,0.00
2022-07-29T00:18:25.845Z,0.00
2022-07-29T00:19:25.876Z,0.00
2022-07-29T00:20:25.828Z,0.00
2022-07-29T00:21:25.845Z,0.00
2022-07-29T00:22:25.802Z,0.00
2022-07-29T00:23:25.800Z,0.00
2022-07-29T00:24:25.813Z,0.00
2022-07-29T00:25:25.790Z,0.00
2022-07-29T00:26:25.796Z,0.00
2022-07-29T00:27:25.750Z,0.00
2022-07-29T00:28:25.750Z,0.00
2022-07-29T00:29:34.744Z,0.00
2022-07-29T00:30:25.737Z,0.00
2022-07-29T00:31:25.821Z,0.00
2022-07-29T00:32:25.715Z,0.00
2022-07-29T00:33:25.682Z,0.00
2022-07-29T00:34:25.689Z,0.00
2022-07-29T00:35:25.674Z,0.00
2022-07-29T00:36:25.806Z,0.00
2022-07-29T00:37:25.770Z,0.00
2022-07-29T00:38:25.746Z,0.00
2022-07-29T00:39:25.643Z,0.00
2022-07-29T00:40:25.620Z,0.00
2022-07-29T00:41:25.621Z,0.00
2022-07-29T00:42:25.623Z,0.00
2022-07-29T00:43:25.583Z,0.00
2022-07-29T00:44:25.588Z,0.00
2022-07-29T00:45:25.560Z,0.00
2022-07-29T00:46:25.631Z,0.00
2022-07-29T00:47:25.640Z,0.00
2022-07-29T00:48:25.538Z,0.00
2022-07-29T00:49:25.575Z,0.00
2022-07-29T00:50:25.554Z,0.00
2022-07-29T00:51:25.522Z,0.00
2022-07-29T00:52:25.492Z,0.00
2022-07-29T00:53:25.480Z,0.00
2022-07-29T00:54:25.474Z,0.00
2022-07-29T00:55:25.457Z,0.00
2022-07-29T00:56:25.437Z,0.00
2022-07-29T00:57:25.425Z,0.00
2022-07-29T00:58:25.420Z,0.00
2022-07-29T00:59:25.438Z,0.00
2022-07-29T01:00:25.507Z,0.00
2022-07-29T01:01:25.508Z,0.00
2022-07-29T01:02:25.467Z,0.00
2022-07-29T01:03:25.363Z,0.00
2022-07-29T01:04:25.373Z,0.00
2022-07-29T01:05:25.342Z,0.00
2022-07-29T01:06:25.347Z,0.00
2022-07-29T01:07:25.324Z,0.00
2022-07-29T01:08:25.337Z,0.00
2022-07-29T01:09:43.068Z,0.00
2022-07-29T01:10:25.315Z,0.00
2022-07-29T01:11:25.277Z,0.00
2022-07-29T01:12:25.331Z,0.00
2022-07-29T01:13:25.316Z,0.00
2022-07-29T01:14:25.418Z,0.00
2022-07-29T01:15:25.331Z,0.00
2022-07-29T01:16:25.358Z,0.00
2022-07-29T01:17:25.267Z,0.00
2022-07-29T01:18:25.254Z,0.00
2022-07-29T01:19:25.338Z,0.00
2022-07-29T01:20:25.552Z,0.00
2022-07-29T01:21:25.203Z,0.00
2022-07-29T01:22:25.179Z,0.00
2022-07-29T01:23:25.166Z,0.00
2022-07-29T01:24:25.169Z,0.00
2022-07-29T01:25:25.145Z,0.00
2022-07-29T01:26:25.130Z,0.00
2022-07-29T01:27:25.127Z,0.00
2022-07-29T01:28:25.149Z,0.00
2022-07-29T01:29:25.117Z,0.00
2022-07-29T01:30:25.086Z,0.00
2022-07-29T01:31:26.582Z,0.00
2022-07-29T01:32:28.282Z,0.00
2022-07-29T01:33:25.064Z,0.00
2022-07-29T01:34:25.073Z,0.00
2022-07-29T01:35:25.060Z,0.00
2022-07-29T01:36:25.029Z,0.00
2022-07-29T01:37:25.024Z,0.00
2022-07-29T01:38:25.039Z,0.00
2022-07-29T01:39:25.012Z,0.00
2022-07-29T01:40:24.983Z,0.00
2022-07-29T01:41:24.988Z,0.00
2022-07-29T01:42:24.958Z,0.00
2022-07-29T01:43:24.958Z,0.00
2022-07-29T01:44:24.962Z,0.00
2022-07-29T01:45:24.951Z,0.00
2022-07-29T01:46:24.951Z,0.00
2022-07-29T01:47:24.911Z,0.00
2022-07-29T01:48:24.899Z,0.00
2022-07-29T01:49:25.095Z,0.00
2022-07-29T01:50:24.887Z,0.00
2022-07-29T01:51:24.879Z,0.00
2022-07-29T01:52:24.892Z,0.00
2022-07-29T01:53:24.851Z,0.00
2022-07-29T01:54:24.855Z,0.00
2022-07-29T01:55:24.839Z,0.00
2022-07-29T01:56:24.809Z,0.00
2022-07-29T01:57:24.835Z,0.00
2022-07-29T01:58:24.808Z,0.00
2022-07-29T01:59:24.807Z,0.00
2022-07-29T02:00:24.772Z,0.00
2022-07-29T02:01:24.809Z,0.00
2022-07-29T02:02:24.753Z,0.00
2022-07-29T02:03:24.745Z,0.00
2022-07-29T02:04:29.192Z,0.00
2022-07-29T02:05:24.812Z,0.00
2022-07-29T02:06:24.703Z,0.00
2022-07-29T02:07:24.695Z,0.00
2022-07-29T02:08:24.691Z,0.00
2022-07-29T02:09:24.703Z,0.00
2022-07-29T02:10:25.900Z,0.00
2022-07-29T02:11:24.663Z,0.00
2022-07-29T02:12:24.638Z,0.00
2022-07-29T02:13:24.633Z,0.00
2022-07-29T02:14:24.654Z,0.00
2022-07-29T02:15:24.611Z,0.00
2022-07-29T02:16:24.663Z,0.00
2022-07-29T02:17:24.599Z,0.00
2022-07-29T02:18:24.586Z,0.00
2022-07-29T02:19:24.615Z,0.00
2022-07-29T02:20:24.562Z,0.00
2022-07-29T02:21:24.553Z,0.00
2022-07-29T02:22:24.531Z,0.00
2022-07-29T02:23:24.528Z,0.00
2022-07-29T02:24:24.575Z,0.00
2022-07-29T02:25:24.506Z,0.00
2022-07-29T02:26:24.497Z,0.00
2022-07-29T02:27:24.483Z,0.00
2022-07-29T02:28:24.472Z,0.00
2022-07-29T02:29:24.495Z,0.00
2022-07-29T02:30:24.451Z,0.00
2022-07-29T02:31:24.514Z,0.00
2022-07-29T02:32:24.428Z,0.00
2022-07-29T02:33:24.427Z,0.00
2022-07-29T02:34:24.417Z,0.00
2022-07-29T02:35:24.422Z,0.00
2022-07-29T02:36:24.427Z,0.00
2022-07-29T02:37:24.376Z,0.00
2022-07-29T02:38:24.364Z,0.00
2022-07-29T02:39:24.380Z,0.00
2022-07-29T02:40:24.345Z,0.00
2022-07-29T02:41:24.335Z,0.00
2022-07-29T02:42:24.330Z,0.00
2022-07-29T02:43:24.312Z,0.00
2022-07-29T02:44:24.315Z,0.00
2022-07-29T02:45:24.303Z,0.00
2022-07-29T02:46:28.187Z,0.00
2022-07-29T02:47:24.299Z,0.00
2022-07-29T02:48:24.263Z,0.00
2022-07-29T02:49:24.361Z,0.00
2022-07-29T02:50:24.309Z,0.00
2022-07-29T02:51:44.102Z,0.00
2022-07-29T02:52:24.208Z,0.00
2022-07-29T02:53:24.169Z,0.00
2022-07-29T02:54:24.186Z,0.00
2022-07-29T02:55:24.141Z,0.00
2022-07-29T02:56:24.114Z,0.00
2022-07-29T02:57:24.124Z,0.00
2022-07-29T02:58:24.102Z,0.00
2022-07-29T02:59:24.104Z,0.00
2022-07-29T03:00:24.109Z,0.00
2022-07-29T03:01:24.119Z,0.00
2022-07-29T03:02:24.055Z,0.00
2022-07-29T03:03:24.061Z,0.00
2022-07-29T03:04:24.084Z,0.00
2022-07-29T03:05:24.025Z,0.00
2022-07-29T03:06:37.466Z,0.00
2022-07-29T03:07:24.020Z,0.00
2022-07-29T03:08:23.992Z,0.00
2022-07-29T03:09:23.998Z,0.00
2022-07-29T03:10:23.975Z,0.00
2022-07-29T03:11:41.527Z,0.00
2022-07-29T03:12:23.960Z,0.00
2022-07-29T03:13:23.949Z,0.00
2022-07-29T03:14:23.976Z,0.00
2022-07-29T03:15:24.876Z,0.00
2022-07-29T03:16:23.970Z,0.00
2022-07-29T03:17:23.905Z,0.00
2022-07-29T03:18:23.886Z,0.00
2022-07-29T03:19:23.905Z,0.00
2022-07-29T03:20:23.865Z,0.00
2022-07-29T03:21:23.860Z,0.00
2022-07-29T03:22:23.838Z,0.00
2022-07-29T03:23:23.851Z,0.00
2022-07-29T03:24:23.834Z,0.00
2022-07-29T03:25:23.811Z,0.00
2022-07-29T03:26:23.804Z,0.00
2022-07-29T03:27:23.793Z,0.00
2022-07-29T03:28:23.776Z,0.00
2022-07-29T03:29:23.794Z,0.00
2022-07-29T03:30:23.777Z,0.00
2022-07-29T03:31:23.787Z,0.00
2022-07-29T03:32:25.343Z,0.00
2022-07-29T03:33:23.726Z,0.00
2022-07-29T03:34:23.731Z,0.00
2022-07-29T03:35:23.730Z,0.00
2022-07-29T03:36:23.700Z,0.00
2022-07-29T03:37:23.683Z,0.00
2022-07-29T03:38:23.672Z,0.00
2022-07-29T03:39:23.726Z,0.00
2022-07-29T03:40:23.647Z,0.00
2022-07-29T03:41:23.692Z,0.00
2022-07-29T03:42:23.633Z,0.00
2022-07-29T03:43:23.678Z,0.00
2022-07-29T03:44:23.608Z,0.00
2022-07-29T03:45:23.611Z,0.00
2022-07-29T03:46:23.740Z,0.00
2022-07-29T03:47:23.588Z,0.00
2022-07-29T03:48:23.570Z,0.00
2022-07-29T03:49:23.670Z,0.00
2022-07-29T03:50:23.570Z,0.00
2022-07-29T03:51:34.001Z,0.00
2022-07-29T03:52:23.529Z,0.00
2022-07-29T03:53:23.554Z,0.00
2022-07-29T03:54:23.507Z,0.00
2022-07-29T03:55:23.515Z,0.00
2022-07-29T03:56:23.527Z,0.00
2022-07-29T03:57:23.472Z,5.62
2022-07-29T03:58:23.461Z,5.62
2022-07-29T03:59:23.473Z,5.62
2022-07-29T04:00:23.447Z,5.62
2022-07-29T04:01:23.475Z,5.62
2022-07-29T04:02:27.353Z,5.62
2022-07-29T04:03:23.463Z,5.62
2022-07-29T04:04:23.399Z,5.62
2022-07-29T04:06:33.737Z,5.62
2022-07-29T04:07:34.715Z,5.62
2022-07-29T04:08:34.698Z,5.62
2022-07-29T04:09:34.781Z,5.62
2022-07-29T04:10:35.859Z,5.62
2022-07-29T04:11:34.685Z,11.25
2022-07-29T04:12:34.660Z,11.25
2022-07-29T04:13:34.650Z,11.25
2022-07-29T04:14:34.649Z,11.25
2022-07-29T04:15:34.706Z,11.25
2022-07-29T04:16:34.733Z,11.25
2022-07-29T04:17:34.623Z,11.25
2022-07-29T04:18:34.606Z,11.25
2022-07-29T04:19:34.615Z,11.25
2022-07-29T04:20:34.574Z,11.25
2022-07-29T04:21:34.563Z,11.25
2022-07-29T04:22:34.552Z,11.25
2022-07-29T04:23:34.549Z,11.25
2022-07-29T04:24:34.541Z,11.25
2022-07-29T04:25:34.544Z,11.25
2022-07-29T04:26:34.506Z,11.25
2022-07-29T04:27:34.499Z,11.25
2022-07-29T04:28:34.495Z,11.25
2022-07-29T04:29:34.482Z,11.25
2022-07-29T04:30:34.499Z,11.25
2022-07-29T04:31:34.491Z,11.25
2022-07-29T04:32:34.451Z,11.25
2022-07-29T04:33:34.445Z,11.25
2022-07-29T04:34:34.463Z,11.25
2022-07-29T04:35:37.951Z,11.25
2022-07-29T04:36:35.476Z,11.25
2022-07-29T04:37:34.413Z,16.88
2022-07-29T04:38:34.398Z,16.88
2022-07-29T04:39:34.376Z,11.25
2022-07-29T04:40:34.383Z,16.88
2022-07-29T04:41:34.486Z,16.88
2022-07-29T04:42:34.366Z,11.25
2022-07-29T04:43:36.793Z,11.25
2022-07-29T04:44:39.510Z,16.88
2022-07-29T04:45:34.333Z,11.25
2022-07-29T04:46:34.357Z,11.25
2022-07-29T04:47:34.293Z,16.88
2022-07-29T04:48:34.302Z,16.88
2022-07-29T04:49:34.296Z,16.88
2022-07-29T04:50:34.280Z,16.88
2022-07-29T04:51:34.275Z,11.25
2022-07-29T04:52:34.240Z,16.88
2022-07-29T04:53:34.233Z,16.88
2022-07-29T04:54:34.222Z,22.50
2022-07-29T04:55:34.225Z,22.50
2022-07-29T04:56:34.195Z,16.88
2022-07-29T04:57:34.185Z,16.88
2022-07-29T04:58:34.215Z,16.88
2022-07-29T04:59:34.172Z,11.25
2022-07-29T05:00:34.164Z,16.88
2022-07-29T05:01:34.238Z,16.88
2022-07-29T05:02:34.218Z,16.88
2022-07-29T05:03:34.130Z,16.88
2022-07-29T05:04:34.119Z,16.88
2022-07-29T05:05:34.119Z,16.88
2022-07-29T05:06:34.150Z,16.88
2022-07-29T05:07:34.092Z,16.88
2022-07-29T05:08:34.078Z,16.88
2022-07-29T05:09:34.061Z,16.88
2022-07-29T05:10:34.061Z,16.88
2022-07-29T05:11:34.053Z,16.88
2022-07-29T05:12:34.030Z,16.88
2022-07-29T05:13:46.033Z,22.50
2022-07-29T05:14:34.021Z,22.50
2022-07-29T05:15:34.069Z,22.50
2022-07-29T05:16:33.987Z,22.50
2022-07-29T05:17:33.981Z,22.50
2022-07-29T05:18:33.976Z,22.50
2022-07-29T05:19:33.963Z,28.12
2022-07-29T05:20:33.975Z,28.12
2022-07-29T05:21:33.942Z,28.12
2022-07-29T05:22:33.923Z,28.12
2022-07-29T05:23:33.915Z,28.12
2022-07-29T05:24:33.953Z,22.50
2022-07-29T05:25:43.380Z,22.50
2022-07-29T05:26:33.893Z,28.12
2022-07-29T05:27:33.905Z,28.12
2022-07-29T05:28:33.878Z,22.50
2022-07-29T05:29:44.614Z,22.50
2022-07-29T05:30:33.899Z,16.88
2022-07-29T05:31:33.838Z,16.88
2022-07-29T05:32:33.824Z,16.88
2022-07-29T05:33:35.346Z,16.88
2022-07-29T05:34:33.831Z,16.88
2022-07-29T05:35:33.827Z,16.88
2022-07-29T05:36:33.780Z,16.88
2022-07-29T05:37:33.787Z,16.88
2022-07-29T05:38:33.757Z,16.88
2022-07-29T05:39:49.089Z,16.88
2022-07-29T05:40:33.764Z,16.88
2022-07-29T05:41:33.731Z,11.25
2022-07-29T05:42:33.722Z,16.88
2022-07-29T05:43:33.709Z,16.88
2022-07-29T05:44:33.704Z,16.88
2022-07-29T05:45:33.703Z,16.88
2022-07-29T05:46:33.753Z,16.88
2022-07-29T05:47:33.694Z,16.88
2022-07-29T05:48:33.654Z,16.88
2022-07-29T05:49:33.686Z,22.50
2022-07-29T05:50:33.669Z,22.50
2022-07-29T05:51:33.625Z,22.50
2022-07-29T05:52:33.615Z,22.50
2022-07-29T05:53:33.610Z,22.50
2022-07-29T05:54:33.593Z,22.50
2022-07-29T05:55:33.601Z,22.50
2022-07-29T05:56:33.576Z,22.50
2022-07-29T05:57:33.618Z,22.50
2022-07-29T05:58:33.545Z,28.12
2022-07-29T05:59:33.545Z,28.12
2022-07-29T06:00:33.566Z,28.12
2022-07-29T06:01:33.632Z,33.75
2022-07-29T06:02:33.505Z,33.75
2022-07-29T06:03:33.503Z,33.75
2022-07-29T06:04:33.561Z,33.75
2022-07-29T06:05:33.504Z,39.38
2022-07-29T06:06:33.489Z,33.75
2022-07-29T06:07:33.908Z,33.75
2022-07-29T06:08:33.486Z,33.75
2022-07-29T06:09:36.234Z,33.75
2022-07-29T06:10:33.510Z,39.38
2022-07-29T06:11:33.421Z,39.38
2022-07-29T06:12:33.402Z,39.38
2022-07-29T06:13:33.402Z,45.00
2022-07-29T06:14:33.439Z,45.00
2022-07-29T06:15:33.474Z,45.00
2022-07-29T06:16:33.450Z,45.00
2022-07-29T06:17:33.383Z,45.00
2022-07-29T06:18:33.343Z,45.00
2022-07-29T06:19:33.346Z,45.00
2022-07-29T06:20:33.397Z,45.00
2022-07-29T06:21:33.319Z,50.62
2022-07-29T06:22:33.404Z,50.62
2022-07-29T06:23:33.325Z,56.25
2022-07-29T06:24:33.387Z,61.88
2022-07-29T06:25:33.335Z,67.50
2022-07-29T06:26:37.755Z,61.88
2022-07-29T06:27:33.312Z,67.50
2022-07-29T06:28:34.284Z,56.25
2022-07-29T06:29:33.237Z,56.25
2022-07-29T06:30:33.504Z,61.88
2022-07-29T06:31:33.605Z,56.25
2022-07-29T06:32:33.243Z,56.25
2022-07-29T06:33:33.222Z,56.25
2022-07-29T06:34:33.225Z,50.62
2022-07-29T06:35:38.330Z,50.62
2022-07-29T06:36:33.230Z,50.62
2022-07-29T06:37:33.171Z,50.62
2022-07-29T06:38:34.259Z,50.62
2022-07-29T06:39:33.194Z,45.00
2022-07-29T06:40:33.220Z,50.62
2022-07-29T06:41:33.116Z,50.62
2022-07-29T06:42:33.196Z,50.62
2022-07-29T06:43:33.129Z,50.62
2022-07-29T06:44:33.098Z,50.62
2022-07-29T06:45:33.129Z,50.62
2022-07-29T06:46:33.367Z,50.62
2022-07-29T06:47:33.087Z,50.62
2022-07-29T06:48:33.066Z,50.62
2022-07-29T06:49:33.129Z,45.00
2022-07-29T06:50:33.068Z,39.38
2022-07-29T06:51:33.044Z,39.38
2022-07-29T06:52:33.027Z,39.38
2022-07-29T06:53:33.002Z,39.38
2022-07-29T06:54:32.976Z,39.38
2022-07-29T06:55:33.047Z,45.00
2022-07-29T06:56:39.239Z,45.00
2022-07-29T06:57:32.964Z,39.38
2022-07-29T06:58:32.943Z,39.38
2022-07-29T06:59:35.891Z,39.38
2022-07-29T07:00:32.995Z,39.38
2022-07-29T07:01:33.103Z,33.75
2022-07-29T07:02:32.958Z,33.75
2022-07-29T07:03:32.892Z,33.75
2022-07-29T07:04:32.921Z,33.75
2022-07-29T07:05:32.873Z,33.75
2022-07-29T07:06:32.932Z,28.12
2022-07-29T07:07:32.864Z,33.75
2022-07-29T07:08:32.866Z,33.75
2022-07-29T07:09:40.353Z,33.75
2022-07-29T07:10:32.869Z,39.38
2022-07-29T07:11:32.849Z,45.00
2022-07-29T07:12:32.801Z,50.62
2022-07-29T07:13:32.825Z,50.62
2022-07-29T07:14:32.823Z,50.62
2022-07-29T07:15:38.958Z,56.25
2022-07-29T07:16:33.155Z,61.88
2022-07-29T07:17:32.766Z,73.12
2022-07-29T07:18:32.785Z,78.75
2022-07-29T07:19:32.749Z,78.75
2022-07-29T07:20:32.805Z,78.75
2022-07-29T07:21:32.747Z,73.12
2022-07-29T07:22:38.371Z,73.12
2022-07-29T07:23:32.752Z,73.12
2022-07-29T07:24:32.658Z,73.12
2022-07-29T07:25:32.659Z,73.12
2022-07-29T07:26:32.645Z,73.12
2022-07-29T07:27:32.637Z,73.12
2022-07-29T07:28:32.627Z,73.12
2022-07-29T07:29:32.604Z,78.75
2022-07-29T07:30:32.637Z,78.75
2022-07-29T07:31:32.677Z,78.75
2022-07-29T07:32:32.619Z,84.38
2022-07-29T07:33:32.589Z,84.38
2022-07-29T07:34:32.560Z,78.75
2022-07-29T07:35:32.888Z,78.75
2022-07-29T07:36:32.562Z,84.38
2022-07-29T07:37:32.566Z,78.75
2022-07-29T07:38:32.684Z,73.12
2022-07-29T07:39:32.551Z,67.50
2022-07-29T07:40:32.569Z,73.12
2022-07-29T07:41:32.744Z,73.12
2022-07-29T07:42:32.587Z,67.50
2022-07-29T07:43:32.532Z,56.25
2022-07-29T07:44:32.479Z,67.50
2022-07-29T07:45:32.558Z,61.88
2022-07-29T07:46:32.481Z,61.88
2022-07-29T07:47:32.627Z,61.88
2022-07-29T07:48:33.059Z,61.88
2022-07-29T07:49:34.376Z,67.50
2022-07-29T07:50:32.443Z,67.50
2022-07-29T07:51:32.410Z,67.50
2022-07-29T07:52:32.430Z,67.50
2022-07-29T07:53:32.705Z,73.12
2022-07-29T07:54:32.496Z,78.75
2022-07-29T07:55:47.513Z,225.00
2022-07-29T07:56:35.251Z,489.38
2022-07-29T07:57:32.416Z,765.00
2022-07-29T07:58:32.346Z,725.62
2022-07-29T07:59:32.307Z,804.38
2022-07-29T08:00:32.370Z,956.25
2022-07-29T08:01:54.963Z,1001.25
2022-07-29T08:02:32.354Z,894.38
2022-07-29T08:03:32.285Z,1006.88
2022-07-29T08:04:32.308Z,961.88
2022-07-29T08:05:32.650Z,961.88
2022-07-29T08:06:32.246Z,1046.25
2022-07-29T08:07:32.245Z,1108.12
2022-07-29T08:08:32.265Z,1108.12
2022-07-29T08:09:32.242Z,990.00
2022-07-29T08:10:32.261Z,1029.38
2022-07-29T08:11:34.080Z,1231.88
2022-07-29T08:12:32.180Z,1175.62
2022-07-29T08:13:32.415Z,1130.62
2022-07-29T08:14:32.269Z,1147.50
2022-07-29T08:15:32.214Z,1108.12
2022-07-29T08:16:32.259Z,1023.75
2022-07-29T08:17:32.158Z,1001.25
2022-07-29T08:18:32.245Z,871.88
2022-07-29T08:19:32.172Z,821.25
2022-07-29T08:20:32.153Z,1136.25
2022-07-29T08:21:32.113Z,1198.12
2022-07-29T08:22:32.123Z,1215.00
2022-07-29T08:23:46.238Z,1068.75
2022-07-29T08:24:32.073Z,1186.88
2022-07-29T08:25:32.088Z,1029.38
2022-07-29T08:26:32.114Z,1091.25
2022-07-29T08:27:47.550Z,1181.25
2022-07-29T08:28:32.062Z,1192.50
2022-07-29T08:29:32.005Z,1181.25
2022-07-29T08:30:32.088Z,1237.50
2022-07-29T08:31:32.156Z,680.62
2022-07-29T08:32:52.759Z,421.88
2022-07-29T08:33:32.298Z,157.50
2022-07-29T08:34:32.052Z,219.38
2022-07-29T08:35:35.186Z,90.00
2022-07-29T08:36:31.931Z,90.00
2022-07-29T08:37:32.079Z,90.00
2022-07-29T08:38:32.022Z,275.62
2022-07-29T08:39:32.245Z,90.00
2022-07-29T08:40:32.783Z,123.75
2022-07-29T08:41:31.881Z,118.12
2022-07-29T08:42:31.887Z,112.50
2022-07-29T08:43:31.976Z,112.50
2022-07-29T08:44:31.925Z,101.25
2022-07-29T08:45:31.949Z,101.25
2022-07-29T08:46:31.912Z,95.62
2022-07-29T08:47:31.885Z,90.00
2022-07-29T08:48:31.915Z,90.00
2022-07-29T08:49:31.927Z,90.00
2022-07-29T08:50:31.849Z,112.50
2022-07-29T08:51:31.850Z,106.88
2022-07-29T08:52:31.803Z,90.00
2022-07-29T08:53:31.835Z,185.62
2022-07-29T08:54:31.792Z,90.00
2022-07-29T08:55:31.904Z,90.00
2022-07-29T08:56:31.780Z,84.38
2022-07-29T08:57:32.081Z,90.00
2022-07-29T08:58:31.804Z,90.00
2022-07-29T08:59:32.602Z,90.00
2022-07-29T09:00:31.841Z,84.38
2022-07-29T09:01:36.137Z,84.38
2022-07-29T09:02:31.710Z,73.12
2022-07-29T09:03:31.765Z,73.12
2022-07-29T09:04:31.716Z,67.50
2022-07-29T09:05:31.719Z,61.88
2022-07-29T09:06:31.729Z,56.25
2022-07-29T09:07:34.834Z,61.88
2022-07-29T09:08:31.660Z,61.88
2022-07-29T09:09:31.646Z,78.75
2022-07-29T09:10:31.745Z,67.50
2022-07-29T09:11:31.766Z,67.50
2022-07-29T09:12:36.080Z,78.75
2022-07-29T09:13:31.617Z,78.75
2022-07-29T09:14:31.603Z,78.75
2022-07-29T09:15:31.659Z,78.75
2022-07-29T09:16:51.932Z,78.75
2022-07-29T09:17:31.642Z,84.38
2022-07-29T09:18:31.749Z,123.75
2022-07-29T09:19:31.544Z,84.38
2022-07-29T09:20:31.650Z,95.62
2022-07-29T09:21:31.540Z,84.38
2022-07-29T09:22:31.519Z,84.38
2022-07-29T09:23:31.532Z,84.38
2022-07-29T09:24:31.478Z,84.38
2022-07-29T09:25:31.529Z,84.38
2022-07-29T09:26:31.555Z,84.38
2022-07-29T09:27:31.443Z,101.25
2022-07-29T09:28:31.477Z,106.88
2022-07-29T09:29:35.836Z,90.00
2022-07-29T09:30:31.809Z,95.62
2022-07-29T09:31:31.486Z,95.62
2022-07-29T09:32:31.432Z,101.25
2022-07-29T09:33:31.423Z,95.62
2022-07-29T09:34:31.497Z,101.25
2022-07-29T09:35:31.364Z,101.25
2022-07-29T09:36:31.406Z,101.25
2022-07-29T09:37:31.349Z,112.50
2022-07-29T09:38:31.431Z,95.62
2022-07-29T09:39:31.336Z,84.38
2022-07-29T09:40:31.363Z,106.88
2022-07-29T09:41:31.307Z,95.62
2022-07-29T09:42:31.392Z,101.25
2022-07-29T09:43:31.285Z,95.62
2022-07-29T09:44:31.280Z,112.50
2022-07-29T09:45:31.333Z,101.25
2022-07-29T09:46:31.405Z,95.62
2022-07-29T09:47:32.180Z,95.62
2022-07-29T09:48:31.222Z,95.62
2022-07-29T09:49:31.221Z,90.00
2022-07-29T09:50:31.227Z,90.00
2022-07-29T09:51:38.344Z,90.00
2022-07-29T09:52:31.245Z,90.00
2022-07-29T09:53:31.183Z,90.00
2022-07-29T09:54:31.254Z,95.62
2022-07-29T09:55:31.263Z,90.00
2022-07-29T09:56:31.145Z,90.00
2022-07-29T09:57:31.517Z,84.38
2022-07-29T09:58:31.144Z,95.62
2022-07-29T09:59:31.094Z,84.38
2022-07-29T10:00:31.195Z,84.38
2022-07-29T10:01:31.088Z,84.38
2022-07-29T10:02:31.099Z,78.75
2022-07-29T10:03:31.159Z,78.75
2022-07-29T10:04:31.093Z,90.00
2022-07-29T10:05:36.355Z,84.38
2022-07-29T10:07:41.356Z,90.00
2022-07-29T10:08:42.310Z,129.38
2022-07-29T10:09:42.303Z,101.25
2022-07-29T10:10:42.319Z,95.62
2022-07-29T10:11:49.273Z,90.00
2022-07-29T10:12:42.276Z,101.25
2022-07-29T10:13:42.264Z,95.62
2022-07-29T10:14:42.268Z,90.00
2022-07-29T10:15:42.265Z,90.00
2022-07-29T10:16:42.337Z,84.38
2022-07-29T10:17:42.224Z,90.00
2022-07-29T10:18:42.215Z,84.38
2022-07-29T10:19:42.206Z,84.38
2022-07-29T10:20:42.202Z,90.00
2022-07-29T10:21:42.179Z,95.62
2022-07-29T10:22:53.012Z,101.25
2022-07-29T10:23:46.254Z,106.88
2022-07-29T10:24:42.180Z,90.00
2022-07-29T10:25:46.334Z,90.00
2022-07-29T10:26:42.131Z,84.38
2022-07-29T10:27:42.125Z,106.88
2022-07-29T10:28:42.149Z,95.62
2022-07-29T10:29:42.100Z,95.62
2022-07-29T10:30:42.117Z,90.00
2022-07-29T10:31:42.302Z,90.00
2022-07-29T10:32:42.071Z,95.62
2022-07-29T10:33:42.088Z,90.00
2022-07-29T10:34:42.069Z,90.00
2022-07-29T10:35:42.074Z,84.38
2022-07-29T10:36:43.330Z,95.62
2022-07-29T10:37:46.043Z,106.88
2022-07-29T10:38:46.094Z,101.25
2022-07-29T10:39:45.195Z,118.12
2022-07-29T10:40:42.003Z,106.88
2022-07-29T10:41:44.105Z,112.50
2022-07-29T10:42:41.960Z,101.25
2022-07-29T10:43:42.341Z,112.50
2022-07-29T10:44:41.963Z,95.62
2022-07-29T10:45:41.954Z,101.25
2022-07-29T10:46:41.950Z,90.00
2022-07-29T10:47:41.968Z,95.62
2022-07-29T10:48:41.942Z,101.25
2022-07-29T10:49:41.917Z,101.25
2022-07-29T10:50:41.890Z,90.00
2022-07-29T10:51:41.876Z,95.62
2022-07-29T10:52:41.940Z,90.00
2022-07-29T10:53:41.864Z,67.50
2022-07-29T10:54:42.348Z,90.00
2022-07-29T10:55:43.223Z,78.75
2022-07-29T10:56:41.809Z,73.12
2022-07-29T10:57:53.751Z,84.38
2022-07-29T10:58:41.801Z,78.75
2022-07-29T10:59:41.801Z,84.38
2022-07-29T11:00:41.809Z,78.75
2022-07-29T11:02:02.452Z,106.88
2022-07-29T12:07:11.071Z,84.38
2022-07-29T12:07:20.391Z,61.88
2022-07-29T12:08:19.819Z,61.88
2022-07-29T12:09:19.777Z,61.88
2022-07-29T12:10:30.400Z,61.88
2022-07-29T12:11:20.914Z,61.88
2022-07-29T12:12:19.761Z,61.88
2022-07-29T12:13:19.737Z,73.12
2022-07-29T12:14:19.721Z,67.50
2022-07-29T12:15:20.375Z,78.75
2022-07-29T12:16:26.494Z,90.00
2022-07-29T12:17:19.735Z,73.12
2022-07-29T12:18:19.707Z,67.50
2022-07-29T12:19:19.672Z,73.12
2022-07-29T12:20:20.467Z,61.88
2022-07-29T12:21:19.650Z,67.50
2022-07-29T12:22:19.652Z,73.12
2022-07-29T12:23:19.631Z,61.88
2022-07-29T12:24:19.633Z,56.25
2022-07-29T12:25:35.023Z,61.88
2022-07-29T12:26:21.841Z,67.50
2022-07-29T12:27:19.599Z,78.75
2022-07-29T12:28:26.842Z,73.12
2022-07-29T12:29:20.351Z,73.12
2022-07-29T12:30:19.590Z,73.12
2022-07-29T12:31:43.324Z,73.12
2022-07-29T12:32:20.083Z,73.12
2022-07-29T12:33:19.524Z,84.38
2022-07-29T12:34:19.522Z,78.75
2022-07-29T12:35:19.529Z,84.38
2022-07-29T12:36:19.497Z,78.75
2022-07-29T12:37:19.482Z,84.38
2022-07-29T12:38:19.488Z,78.75
2022-07-29T12:39:19.460Z,78.75
2022-07-29T12:40:19.475Z,73.12
2022-07-29T12:41:19.456Z,90.00
2022-07-29T12:42:19.445Z,95.62
2022-07-29T12:43:19.422Z,348.75
2022-07-29T12:44:19.411Z,151.88
2022-07-29T12:45:19.430Z,185.62
2022-07-29T12:46:19.517Z,140.62
2022-07-29T12:47:19.424Z,135.00
2022-07-29T12:48:19.395Z,123.75
2022-07-29T12:49:19.416Z,191.25
2022-07-29T12:50:23.273Z,146.25
2022-07-29T12:51:19.408Z,129.38
2022-07-29T12:52:19.335Z,135.00
2022-07-29T12:53:19.316Z,106.88
2022-07-29T12:54:19.337Z,106.88
2022-07-29T12:55:19.344Z,135.00
2022-07-29T12:57:19.997Z,151.88
2022-07-29T12:58:19.317Z,185.62
2022-07-29T12:59:19.254Z,95.62
2022-07-29T13:00:19.283Z,101.25
2022-07-29T13:01:19.302Z,84.38
2022-07-29T13:02:19.276Z,230.62
2022-07-29T13:03:19.625Z,225.00
2022-07-29T13:04:19.230Z,140.62
2022-07-29T13:05:19.216Z,73.12
2022-07-29T13:06:19.203Z,106.88
2022-07-29T13:07:19.304Z,185.62
2022-07-29T13:08:22.081Z,241.88
2022-07-29T13:09:19.160Z,219.38
2022-07-29T13:10:19.171Z,247.50
2022-07-29T13:11:19.161Z,123.75
2022-07-29T13:12:19.130Z,151.88
2022-07-29T13:13:19.146Z,365.62
2022-07-29T13:14:19.116Z,646.88
2022-07-29T13:15:19.091Z,393.75
2022-07-29T13:16:19.150Z,129.38
2022-07-29T13:17:19.075Z,106.88
2022-07-29T13:18:19.568Z,95.62
2022-07-29T13:19:19.064Z,84.38
2022-07-29T13:20:19.084Z,84.38
2022-07-29T13:21:19.118Z,78.75
2022-07-29T13:22:19.025Z,73.12
2022-07-29T13:23:19.008Z,73.12
2022-07-29T13:24:19.961Z,73.12
2022-07-29T13:25:19.006Z,84.38
2022-07-29T13:26:19.030Z,90.00
2022-07-29T13:27:19.011Z,95.62
2022-07-29T13:28:18.975Z,123.75
2022-07-29T13:29:18.973Z,112.50
2022-07-29T13:30:18.964Z,157.50
2022-07-29T13:31:18.980Z,174.38
2022-07-29T13:32:18.954Z,95.62
2022-07-29T13:33:18.933Z,230.62
2022-07-29T13:34:18.905Z,101.25
2022-07-29T13:35:18.883Z,101.25
2022-07-29T13:36:18.919Z,90.00
2022-07-29T13:37:18.918Z,90.00
2022-07-29T13:38:18.890Z,84.38
2022-07-29T13:39:18.856Z,90.00
2022-07-29T13:40:18.850Z,140.62
2022-07-29T13:41:18.840Z,78.75
2022-07-29T13:42:18.813Z,118.12
2022-07-29T13:43:18.798Z,101.25
2022-07-29T13:44:18.796Z,151.88
2022-07-29T13:45:18.794Z,309.38
2022-07-29T13:46:18.946Z,500.62
2022-07-29T13:47:18.796Z,753.75
2022-07-29T13:48:18.763Z,528.75
2022-07-29T13:49:18.831Z,180.00
2022-07-29T13:50:18.746Z,225.00
2022-07-29T13:51:18.763Z,348.75
2022-07-29T13:52:18.718Z,208.12
2022-07-29T13:53:18.702Z,478.12
2022-07-29T13:54:18.713Z,444.38
2022-07-29T13:55:18.694Z,230.62
2022-07-29T13:56:18.704Z,320.62
2022-07-29T13:57:18.693Z,410.62
2022-07-29T13:58:18.658Z,191.25
2022-07-29T13:59:18.662Z,191.25
2022-07-29T14:00:18.674Z,101.25
2022-07-29T14:01:18.685Z,95.62
2022-07-29T14:02:18.615Z,95.62